createdAt,value
2018-06-22T00:03:00.031Z,100463.00
2018-06-22T00:05:29.188Z,100467.00
2018-06-22T00:07:58.369Z,100465.00
2018-06-22T00:10:27.585Z,100465.00
2018-06-22T00:13:03.701Z,100459.00
2018-06-22T00:15:32.898Z,100467.00
2018-06-22T00:18:02.062Z,100475.00
2018-06-22T00:20:31.245Z,100476.00
2018-06-22T00:23:06.366Z,100474.00
2018-06-22T00:25:35.533Z,100476.00
2018-06-22T00:28:04.710Z,100484.00
2018-06-22T00:30:33.900Z,100478.00
2018-06-22T00:33:03.059Z,100475.00
2018-06-22T00:36:01.364Z,100477.00
2018-06-22T00:38:30.640Z,100470.00
2018-06-22T00:41:05.273Z,100476.00
2018-06-22T00:43:34.838Z,100473.00
2018-06-22T00:46:04.045Z,100470.00
2018-06-22T00:48:33.194Z,100471.00
2018-06-22T00:54:15.233Z,100477.00
2018-06-22T00:56:44.552Z,100476.00
2018-06-22T00:59:13.734Z,100478.00
2018-06-22T01:01:42.926Z,100486.00
2018-06-22T01:04:12.121Z,100477.00
2018-06-22T01:06:41.303Z,100489.00
2018-06-22T01:09:12.234Z,100479.00
2018-06-22T01:11:41.465Z,100482.00
2018-06-22T01:14:10.634Z,100484.00
2018-06-22T01:16:39.826Z,100493.00
2018-06-22T01:19:09.408Z,100480.00
2018-06-22T01:21:38.325Z,100475.00
2018-06-22T01:24:07.538Z,100482.00
2018-06-22T01:26:36.694Z,100488.00
2018-06-22T01:29:11.001Z,100477.00
2018-06-22T01:32:03.246Z,100481.00
2018-06-22T01:34:32.435Z,100487.00
2018-06-22T01:37:01.610Z,100484.00
2018-06-22T01:39:30.753Z,100485.00
2018-06-22T01:41:59.945Z,100479.00
2018-06-22T01:44:29.462Z,100489.00
2018-06-22T01:46:58.619Z,100492.00
2018-06-22T01:49:27.829Z,100488.00
2018-06-22T01:51:56.981Z,100493.00
2018-06-22T01:54:26.247Z,100491.00
2018-06-22T01:56:55.501Z,100491.00
2018-06-22T02:02:18.317Z,100502.00
2018-06-22T02:04:47.515Z,100487.00
2018-06-22T02:07:16.681Z,100505.00
2018-06-22T02:09:45.885Z,100503.00
2018-06-22T02:12:15.081Z,100503.00
2018-06-22T02:17:44.348Z,100505.00
2018-06-22T02:20:13.505Z,100501.00
2018-06-22T02:22:42.676Z,100502.00
2018-06-22T02:25:11.869Z,100502.00
2018-06-22T02:28:03.557Z,100502.00
2018-06-22T02:30:32.753Z,100497.00
2018-06-22T02:33:06.050Z,100508.00
2018-06-22T02:35:35.260Z,100500.00
2018-06-22T02:38:04.443Z,100507.00
2018-06-22T02:40:33.596Z,100503.00
2018-06-22T02:55:03.293Z,100533.00
2018-06-22T02:57:32.474Z,100531.00
2018-06-22T03:00:05.199Z,100528.00
2018-06-22T03:02:34.361Z,100528.00
2018-06-22T03:05:03.523Z,100526.00
2018-06-22T03:07:32.725Z,100537.00
2018-06-22T03:10:06.545Z,100548.00
2018-06-22T03:12:35.742Z,100549.00
2018-06-22T03:15:05.149Z,100545.00
2018-06-22T03:17:34.111Z,100547.00
2018-06-22T03:20:03.033Z,100553.00
2018-06-22T03:22:31.959Z,100560.00
2018-06-22T03:25:01.133Z,100548.00
2018-06-22T03:30:30.711Z,100558.00
2018-06-22T03:32:59.854Z,100556.00
2018-06-22T03:35:29.007Z,100559.00
2018-06-22T03:37:58.207Z,100557.00
2018-06-22T03:40:27.363Z,100559.00
2018-06-22T03:42:56.501Z,100557.00
2018-06-22T03:45:25.687Z,100562.00
2018-06-22T03:47:55.042Z,100563.00
2018-06-22T03:50:24.197Z,100576.00
2018-06-22T03:52:53.195Z,100574.00
2018-06-22T03:55:22.356Z,100557.00
2018-06-22T03:57:51.501Z,100562.00
2018-06-22T04:00:20.452Z,100561.00
2018-06-22T04:02:49.617Z,100565.00
2018-06-22T04:05:18.793Z,100569.00
2018-06-22T04:07:47.997Z,100560.00
2018-06-22T04:10:17.152Z,100571.00
2018-06-22T04:12:46.298Z,100564.00
2018-06-22T04:15:15.716Z,100573.00
2018-06-22T04:17:51.538Z,100573.00
2018-06-22T04:20:22.030Z,100571.00
2018-06-22T04:25:51.768Z,100573.00
2018-06-22T04:28:20.931Z,100574.00
2018-06-22T04:30:50.103Z,100579.00
2018-06-22T04:33:19.276Z,100571.00
2018-06-22T04:35:48.442Z,100579.00
2018-06-22T04:38:17.605Z,100575.00
2018-06-22T04:40:46.797Z,100573.00
2018-06-22T04:43:15.945Z,100583.00
2018-06-22T04:45:45.092Z,100574.00
2018-06-22T04:48:14.804Z,100577.00
2018-06-22T04:53:44.516Z,100582.00
2018-06-22T04:56:13.680Z,100583.00
2018-06-22T04:58:42.864Z,100583.00
2018-06-22T05:01:12.063Z,100582.00
2018-06-22T05:03:41.081Z,100575.00
2018-06-22T05:06:10.249Z,100586.00
2018-06-22T05:08:39.532Z,100577.00
2018-06-22T05:11:08.734Z,100577.00
2018-06-22T05:13:37.929Z,100571.00
2018-06-22T05:16:07.153Z,100576.00
2018-06-22T05:21:36.590Z,100593.00
2018-06-22T05:24:05.861Z,100593.00
2018-06-22T05:26:35.318Z,100592.00
2018-06-22T05:29:04.524Z,100599.00
2018-06-22T05:31:33.745Z,100593.00
2018-06-22T05:34:02.912Z,100586.00
2018-06-22T05:36:32.102Z,100575.00
2018-06-22T05:39:01.300Z,100581.00
2018-06-22T05:41:30.474Z,100581.00
2018-06-22T05:44:06.029Z,100590.00
2018-06-22T05:47:02.143Z,100586.00
2018-06-22T05:49:31.538Z,100583.00
2018-06-22T05:52:00.744Z,100577.00
2018-06-22T05:54:29.909Z,100581.00
2018-06-22T05:57:05.425Z,100594.00
2018-06-22T05:59:34.614Z,100586.00
2018-06-22T06:02:03.782Z,100590.00
2018-06-22T06:04:33.026Z,100583.00
2018-06-22T06:07:02.218Z,100571.00
2018-06-22T06:09:31.356Z,100569.00
2018-06-22T06:12:06.329Z,100565.00
2018-06-22T06:14:35.488Z,100563.00
2018-06-22T06:17:04.684Z,100567.00
2018-06-22T06:19:33.913Z,100565.00
2018-06-22T06:22:03.082Z,100557.00
2018-06-22T06:24:32.278Z,100550.00
2018-06-22T06:27:05.028Z,100557.00
2018-06-22T06:29:34.255Z,100547.00
2018-06-22T06:32:03.417Z,100562.00
2018-06-22T06:34:32.689Z,100563.00
2018-06-22T06:37:01.878Z,100551.00
2018-06-22T06:42:31.260Z,100551.00
2018-06-22T06:45:00.429Z,100557.00
2018-06-22T06:47:29.623Z,100558.00
2018-06-22T06:49:59.151Z,100558.00
2018-06-22T06:52:28.332Z,100548.00
2018-06-22T06:55:04.383Z,100553.00
2018-06-22T07:00:15.955Z,100541.00
2018-06-22T07:02:45.184Z,100555.00
2018-06-22T07:05:14.384Z,100553.00
2018-06-22T07:10:44.253Z,100547.00
2018-06-22T07:13:13.545Z,100546.00
2018-06-22T07:15:42.874Z,100547.00
2018-06-22T07:18:12.074Z,100550.00
2018-06-22T07:20:41.232Z,100550.00
2018-06-22T07:23:10.552Z,100547.00
2018-06-22T07:25:39.757Z,100548.00
2018-06-22T07:28:08.946Z,100549.00
2018-06-22T07:30:38.183Z,100547.00
2018-06-22T07:33:07.330Z,100559.00
2018-06-22T07:41:38.354Z,100544.00
2018-06-22T07:44:07.729Z,100535.00
2018-06-22T07:46:36.936Z,100540.00
2018-06-22T07:49:06.169Z,100530.00
2018-06-22T07:51:35.661Z,100538.00
2018-06-22T07:54:04.892Z,100530.00
2018-06-22T07:56:34.138Z,100531.00
2018-06-22T07:59:03.326Z,100551.00
2018-06-22T08:01:32.695Z,100546.00
2018-06-22T08:04:05.090Z,100548.00
2018-06-22T08:06:34.390Z,100553.00
2018-06-22T08:09:03.666Z,100560.00
2018-06-22T08:11:32.898Z,100554.00
2018-06-22T08:14:02.078Z,100553.00
2018-06-22T08:16:31.246Z,100558.00
2018-06-22T08:19:00.448Z,100564.00
2018-06-22T08:24:46.253Z,100557.00
2018-06-22T08:27:15.459Z,100554.00
2018-06-22T08:29:44.641Z,100556.00
2018-06-22T08:32:13.969Z,100561.00
2018-06-22T08:34:43.179Z,100554.00
2018-06-22T08:37:12.341Z,100547.00
2018-06-22T08:39:41.592Z,100560.00
2018-06-22T08:42:10.810Z,100566.00
2018-06-22T08:45:03.554Z,100558.00
2018-06-22T08:47:32.754Z,100575.00
2018-06-22T08:50:06.347Z,100580.00
2018-06-22T08:52:35.665Z,100579.00
2018-06-22T08:55:04.846Z,100587.00
2018-06-22T08:57:34.049Z,100577.00
2018-06-22T09:03:04.021Z,100577.00
2018-06-22T09:05:33.249Z,100580.00
2018-06-22T09:08:02.467Z,100561.00
2018-06-22T09:10:31.718Z,100567.00
2018-06-22T09:13:04.770Z,100571.00
2018-06-22T09:15:33.981Z,100571.00
2018-06-22T09:21:03.382Z,100566.00
2018-06-22T09:23:32.742Z,100580.00
2018-06-22T09:26:05.328Z,100591.00
2018-06-22T09:28:34.521Z,100592.00
2018-06-22T09:31:05.253Z,100594.00
2018-06-22T09:34:03.531Z,100602.00
2018-06-22T09:43:03.730Z,100615.00
2018-06-22T09:46:02.034Z,100619.00
2018-06-22T09:48:31.269Z,100620.00
2018-06-22T09:54:05.487Z,100624.00
2018-06-22T09:58:06.466Z,100631.00
2018-06-22T10:03:36.116Z,100659.00
2018-06-22T10:06:05.464Z,100667.00
2018-06-22T10:08:34.701Z,100658.00
2018-06-22T10:11:03.942Z,100657.00
2018-06-22T10:13:43.395Z,100662.00
2018-06-22T10:16:12.584Z,100664.00
2018-06-22T10:18:41.781Z,100663.00
2018-06-22T10:47:06.114Z,100643.00
2018-06-22T10:53:02.522Z,100628.00
2018-06-22T11:08:02.100Z,100634.00
2018-06-22T11:13:31.804Z,100644.00
2018-06-22T11:16:01.146Z,100637.00
2018-06-22T11:18:30.377Z,100638.00
2018-06-22T11:20:59.533Z,100649.00
2018-06-22T11:23:28.884Z,100636.00
2018-06-22T11:25:58.039Z,100638.00
2018-06-22T11:28:27.237Z,100639.00
2018-06-22T11:34:10.139Z,100647.00
2018-06-22T11:36:42.973Z,100640.00
2018-06-22T11:39:14.753Z,100646.00
2018-06-22T11:42:04.538Z,100646.00
2018-06-22T11:45:02.494Z,100646.00
2018-06-22T11:50:31.806Z,100641.00
2018-06-22T11:53:00.995Z,100645.00
2018-06-22T11:55:30.212Z,100633.00
2018-06-22T11:57:59.397Z,100634.00
2018-06-22T12:00:28.578Z,100640.00
2018-06-22T12:02:57.821Z,100639.00
2018-06-22T12:05:27.009Z,100641.00
2018-06-22T12:07:56.181Z,100631.00
2018-06-22T12:49:30.609Z,100638.00
2018-06-22T12:52:05.104Z,100632.00
2018-06-22T12:55:01.926Z,100614.00
2018-06-22T13:22:02.535Z,100602.00
2018-06-22T13:40:02.596Z,100591.00
2018-06-22T14:01:02.189Z,100598.00
2018-06-22T14:03:31.666Z,100602.00
2018-06-22T14:06:12.242Z,100596.00
2018-06-22T14:09:04.995Z,100611.00
2018-06-22T14:15:02.962Z,100606.00
2018-06-22T14:19:08.718Z,100606.00
2018-06-22T14:22:03.508Z,100611.00
2018-06-22T14:27:32.784Z,100600.00
2018-06-22T14:30:01.963Z,100597.00
2018-06-22T14:32:31.189Z,100603.00
2018-06-22T14:35:00.154Z,100602.00
2018-06-22T14:40:29.393Z,100604.00
2018-06-22T14:42:58.577Z,100604.00
2018-06-22T14:45:37.959Z,100603.00
2018-06-22T14:48:07.110Z,100600.00
2018-06-22T14:51:02.306Z,100592.00
2018-06-22T14:53:36.956Z,100596.00
2018-06-22T14:56:11.634Z,100599.00
2018-06-22T14:58:46.150Z,100600.00
2018-06-22T15:02:57.681Z,100604.00
2018-06-22T15:05:32.487Z,100599.00
2018-06-22T15:11:01.865Z,100602.00
2018-06-22T15:13:31.067Z,100599.00
2018-06-22T15:16:01.299Z,100603.00
2018-06-22T15:18:30.529Z,100606.00
2018-06-22T15:20:59.897Z,100599.00
2018-06-22T15:23:29.341Z,100589.00
2018-06-22T15:25:58.579Z,100612.00
2018-06-22T15:28:27.752Z,100603.00
2018-06-22T15:30:56.960Z,100594.00
2018-06-22T15:33:31.397Z,100603.00
2018-06-22T15:36:06.103Z,100591.00
2018-06-22T15:42:52.201Z,100606.00
2018-06-22T15:45:26.638Z,100598.00
2018-06-22T15:48:01.189Z,100590.00
2018-06-22T15:50:35.733Z,100603.00
2018-06-22T16:03:00.661Z,100595.00
2018-06-22T16:05:30.032Z,100596.00
2018-06-22T16:08:05.718Z,100593.00
2018-06-22T16:10:34.916Z,100594.00
2018-06-22T16:16:10.305Z,100593.00
2018-06-22T16:25:15.897Z,100599.00
2018-06-22T16:31:05.303Z,100595.00
2018-06-22T16:34:02.170Z,100606.00
2018-06-22T16:36:31.405Z,100615.00
2018-06-22T16:39:10.137Z,100605.00
2018-06-22T16:42:04.507Z,100603.00
2018-06-22T16:44:33.680Z,100605.00
2018-06-22T16:50:07.866Z,100609.00
2018-06-22T16:52:37.247Z,100615.00
2018-06-22T16:55:06.642Z,100612.00
2018-06-22T16:58:02.471Z,100608.00
2018-06-22T17:11:12.090Z,100618.00
2018-06-22T17:14:09.784Z,100610.00
2018-06-22T17:23:03.497Z,100620.00
2018-06-22T17:31:32.693Z,100636.00
2018-06-22T17:40:03.979Z,100645.00
2018-06-22T17:43:02.749Z,100640.00
2018-06-22T17:51:32.403Z,100635.00
2018-06-22T18:10:09.177Z,100659.00
2018-06-22T18:16:03.526Z,100661.00
2018-06-22T18:37:02.135Z,100646.00
2018-06-22T19:20:07.953Z,100684.00
2018-06-22T19:32:02.882Z,100683.00
2018-06-22T19:44:02.458Z,100700.00
2018-06-22T20:05:02.701Z,100704.00
2018-06-22T20:09:09.693Z,100705.00
2018-06-22T20:12:03.975Z,100714.00
2018-06-22T20:18:02.253Z,100702.00
2018-06-22T20:23:22.859Z,100708.00
2018-06-22T20:38:12.591Z,100697.00
2018-06-22T22:44:32.979Z,100713.00
2018-06-22T22:47:05.762Z,100705.00
2018-06-22T22:55:36.313Z,100703.00
2018-06-22T22:58:05.474Z,100703.00
2018-06-22T23:07:04.273Z,100680.00
2018-06-22T23:10:03.146Z,100676.00
